Impacts TAF Board INFO
FOR SITUATIONAL AWARENESS. NOT TO BE USED FOR FLIGHT PLANNING PURPOSES.
IDs:

KORD - Chicago/O'Hare Intl, IL, US

Issued at 1724 UTC 16 Aug 2018
Updated at 2019 UTC 16 Aug 2018
Potential Impact None Slight Moderate High
Time1951Z 16/21Z 16/22Z 16/23Z 17/00Z 17/01Z 17/02Z 17/03Z 17/04Z 17/05Z 17/06Z 17/07Z 17/08Z 17/09Z>>
Type OBS PRVL PRVL PRVL PRVL PRVL PRVL PRVL PRVL PRVL PRVL PRVL PRVL PRVL
VIS 10 >6 >6 >6 >6 >6 >6 >6 >6 >6 >6 6 6 6
CIG 35 35 35 35 35 35 70 70 70 70 70 35 35 35
Cover OVC BKN BKN BKN BKN BKN BKN BKN BKN BKN BKN BKN BKN BKN
FltCat VFR VFR VFR VFR VFR VFR VFR VFR VFR VFR VFR VFR VFR VFR
WX -- VCSH VCSH VCSH VCSH VCSH VCSH VCSH VCSH VCSH VCSH BR VCSH BR VCSH BR VCSH
WDir VRB 70 70 70 70 70 30 30 30 30 30 VRB VRB VRB
WSpd 0 8 8 8 8 8 4 4 4 4 4 3 3 3
WGst -- -- -- -- -- -- -- -- -- -- -- -- -- --

Raw TAF
KORD 161724Z 1618/1724 07008KT P6SM VCSH BKN035 BKN050
  FM170200 03004KT P6SM VCSH SCT035 BKN070
  FM170700 VRB03KT 6SM BR VCSH SCT020 BKN035
  FM171400 02005KT P6SM SCT020 BKN035
  FM171800 05009KT P6SM BKN040


Raw METAR
KORD 161951Z 00000KT 10SM BKN035 OVC065 28/19 A2992 RMK AO2 SLP127 T02830194
KORD 161851Z 08004KT 10SM BKN034 BKN042 28/19 A2994 RMK AO2 SLP134 T02780194
KORD 161751Z 12003KT 10SM SCT030 BKN050 28/20 A2995 RMK AO2 SLP136 T02780200 10283 20228 58004

METAR Board
Radar Display
Forecast Discussion

FOR SITUATIONAL AWARENESS. NOT TO BE USED FOR FLIGHT PLANNING PURPOSES.